.
WxDataArchive / Data Records for 2012-10-08
2012-10-07 October 2012 2012-10-09

Data Records for Monday, 08 October 2012

Time	Temp	Chill	HIndex	Humid	Dewpt	 Wind 	HiWind	WindDir	Rain 	Barom 
-----	----	-----	------	-----	-----	------	------	-------	-----	----- 
00:00	41.3	41.3	41.3	81	35.9	0	0	---	0.00	30.171 
00:05	41.2	41.2	41.2	81	35.8	0	1	292	0.00	30.171 
00:10	41.2	41.2	41.2	82	36.1	0	0	---	0.00	30.171 
00:15	41.2	41.2	41.2	81	35.8	0	1	292	0.00	30.172 
00:20	41.3	41.3	41.3	81	35.9	0	0	---	0.00	30.172 
00:25	41.3	41.3	41.3	81	35.9	0	1	292	0.00	30.172 
00:30	41.5	41.5	41.5	81	36.1	0	1	292	0.00	30.171 
00:35	41.5	41.5	41.5	80	35.8	0	0	---	0.00	30.171 
00:40	41.3	41.3	41.3	80	35.6	0	0	---	0.00	30.171 
00:45	41.3	41.3	41.3	80	35.6	0	0	---	0.00	30.171 
00:50	41.3	41.3	41.3	80	35.6	0	0	---	0.00	30.171 
00:55	41.2	41.2	41.2	80	35.5	0	0	---	0.00	30.171 
01:00	41.1	41.1	41.1	80	35.4	0	0	---	0.00	30.170 
01:05	40.9	40.9	40.9	80	35.2	0	0	---	0.00	30.170 
01:10	40.6	40.6	40.6	81	35.2	0	0	---	0.00	30.170 
01:15	40.5	40.5	40.5	81	35.1	0	0	---	0.00	30.174 
01:20	40.3	40.3	40.3	81	34.9	0	0	---	0.00	30.174 
01:25	40.2	40.2	40.2	81	34.8	0	0	---	0.00	30.174 
01:30	40.1	40.1	40.1	82	35.1	0	0	---	0.00	30.184 
01:35	40.1	40.1	40.1	82	35.1	0	0	---	0.00	30.184 
01:40	40.1	40.1	40.1	83	35.4	0	0	---	0.00	30.184 
01:45	40.1	40.1	40.1	83	35.4	0	0	---	0.00	30.181 
01:50	40.2	40.2	40.2	83	35.5	0	0	---	0.00	30.181 
01:55	40.2	40.2	40.2	83	35.5	0	0	---	0.00	30.181 
02:00	40.2	40.2	40.2	83	35.5	0	0	---	0.00	30.179 
02:05	40.2	40.2	40.2	83	35.5	0	0	---	0.00	30.179 
02:10	40.1	40.1	40.1	84	35.7	0	0	---	0.00	30.179 
02:15	39.9	39.9	39.9	84	35.5	0	0	---	0.00	30.183 
02:20	39.9	39.9	39.9	84	35.5	0	0	---	0.00	30.183 
02:25	39.6	39.6	39.6	84	35.2	0	0	---	0.00	30.183 
02:30	39.3	39.3	39.3	84	34.9	0	0	---	0.00	30.190 
02:35	39.2	39.2	39.2	84	34.8	0	0	---	0.00	30.190 
02:40	38.9	38.9	38.9	84	34.5	0	0	---	0.00	30.190 
02:45	38.8	38.8	38.8	84	34.4	0	0	---	0.00	30.196 
02:50	38.6	38.6	38.6	84	34.2	0	0	---	0.00	30.196 
02:55	38.5	38.5	38.5	84	34.1	0	0	---	0.00	30.196 
03:00	38.2	38.2	38.2	84	33.8	0	0	---	0.00	30.201 
03:05	38.0	38.0	38.0	84	33.6	0	0	---	0.00	30.201 
03:10	37.8	37.8	37.8	84	33.4	0	0	---	0.00	30.201 
03:15	37.6	37.6	37.6	84	33.2	0	0	---	0.00	30.194 
03:20	37.3	37.3	37.3	84	32.9	0	0	---	0.00	30.194 
03:25	37.0	37.0	37.0	84	32.6	0	0	---	0.00	30.194 
03:30	36.8	36.8	36.8	84	32.4	0	0	---	0.00	30.195 
03:35	36.5	36.5	36.5	84	32.1	0	0	---	0.00	30.195 
03:40	36.2	36.2	36.2	85	32.1	0	0	---	0.00	30.195 
03:45	35.9	35.9	35.9	85	31.8	0	0	---	0.00	30.192 
03:50	35.6	35.6	35.6	85	31.5	0	0	---	0.00	30.192 
03:55	35.5	35.5	35.5	85	31.4	0	0	---	0.00	30.192 
04:00	35.2	35.2	35.2	85	31.2	0	0	---	0.00	30.190 
04:05	34.9	34.9	34.9	86	31.1	0	0	---	0.00	30.190 
04:10	34.6	34.6	34.6	85	30.6	0	0	---	0.00	30.190 
04:15	34.3	34.3	34.3	86	30.6	0	0	---	0.00	30.185 
04:20	34.0	34.0	34.0	86	30.3	0	0	---	0.00	30.185 
04:25	33.7	33.7	33.7	86	30.0	0	0	---	0.00	30.185 
04:30	33.5	33.5	33.5	86	29.8	0	0	---	0.00	30.193 
04:35	33.2	33.2	33.2	87	29.8	0	0	---	0.00	30.193 
04:40	33.1	33.1	33.1	87	29.7	0	0	---	0.00	30.193 
04:45	32.9	32.9	32.9	87	29.5	0	0	---	0.00	30.195 
04:50	32.8	32.8	32.8	87	29.4	0	0	---	0.00	30.195 
04:55	32.7	32.7	32.7	88	29.5	0	0	---	0.00	30.195 
05:00	32.5	32.5	32.5	88	29.3	0	0	---	0.00	30.196 
05:05	32.4	32.4	32.4	88	29.3	0	0	---	0.00	30.196 
05:10	32.4	32.4	32.4	88	29.3	0	0	---	0.00	30.196 
05:15	32.2	32.2	32.2	88	29.1	0	0	---	0.00	30.204 
05:20	32.1	32.1	32.1	88	29.0	0	0	---	0.00	30.204 
05:25	31.8	31.8	31.8	88	28.7	0	0	---	0.00	30.204 
05:30	31.8	31.8	31.8	88	28.7	0	0	---	0.00	30.207 
05:35	31.6	31.6	31.6	88	28.5	0	0	---	0.00	30.207 
05:40	31.5	31.5	31.5	88	28.4	0	0	---	0.00	30.207 
05:45	31.5	31.5	31.5	89	28.6	0	0	---	0.00	30.207 
05:50	31.3	31.3	31.3	89	28.4	0	0	---	0.00	30.207 
05:55	31.2	31.2	31.2	89	28.3	0	0	---	0.00	30.207 
06:00	31.0	31.0	31.0	89	28.1	0	0	---	0.00	30.205 
06:05	30.9	30.9	30.9	89	28.0	0	0	---	0.00	30.205 
06:10	30.9	30.9	30.9	89	28.0	0	0	---	0.00	30.205 
06:15	30.7	30.7	30.7	89	27.8	0	0	---	0.00	30.208 
06:20	30.6	30.6	30.6	89	27.8	0	0	---	0.00	30.208 
06:25	30.6	30.6	30.6	90	28.0	0	0	---	0.00	30.208 
06:30	30.4	30.4	30.4	90	27.8	0	0	---	0.00	30.214 
06:35	30.3	30.3	30.3	90	27.7	0	0	---	0.00	30.214 
06:40	30.3	30.3	30.3	90	27.7	0	0	---	0.00	30.214 
06:45	30.1	30.1	30.1	90	27.5	0	0	---	0.00	30.214 
06:50	30.1	30.1	30.1	90	27.5	0	0	---	0.00	30.214 
06:55	30.0	30.0	30.0	90	27.4	0	0	---	0.00	30.214 
07:00	29.8	29.8	29.8	90	27.2	0	0	---	0.00	30.221 
07:05	29.8	29.8	29.8	90	27.2	0	0	---	0.00	30.221 
07:10	29.7	29.7	29.7	90	27.1	0	0	---	0.00	30.221 
07:15	29.7	29.7	29.7	90	27.1	0	0	---	0.00	30.221 
07:20	29.7	29.7	29.7	90	27.1	0	0	---	0.00	30.221 
07:25	29.7	29.7	29.7	90	27.1	0	0	---	0.00	30.221 
07:30	29.7	29.7	29.7	91	27.4	0	0	---	0.00	30.225 
07:35	29.5	29.5	29.5	91	27.2	0	0	---	0.00	30.225 
07:40	29.5	29.5	29.5	91	27.2	0	0	---	0.00	30.225 
07:45	29.5	29.5	29.5	91	27.2	0	0	---	0.00	30.224 
07:50	29.4	29.4	29.4	91	27.1	0	0	---	0.00	30.224 
07:55	29.4	29.4	29.4	91	27.1	0	0	---	0.00	30.224 
08:00	29.4	29.4	29.4	91	27.1	0	0	---	0.00	30.225 
08:05	29.4	29.4	29.4	91	27.1	0	0	---	0.00	30.225 
08:10	29.4	29.4	29.4	91	27.1	0	0	---	0.00	30.225 
08:15	29.4	29.4	29.4	91	27.1	0	0	---	0.00	30.230 
08:20	29.4	29.4	29.4	91	27.1	0	0	---	0.00	30.230 
08:25	29.5	29.5	29.5	91	27.2	0	0	---	0.00	30.230 
08:30	29.8	29.8	29.8	92	27.8	0	0	---	0.00	30.235 
08:35	30.1	30.1	30.1	92	28.1	0	0	---	0.00	30.235 
08:40	30.4	30.4	30.4	92	28.4	0	0	---	0.00	30.235 
08:45	30.7	30.7	30.7	92	28.7	0	0	---	0.00	30.235 
08:50	31.2	31.2	31.2	92	29.2	0	0	---	0.00	30.235 
08:55	31.6	31.6	31.6	92	29.5	0	0	---	0.00	30.235 
09:00	32.2	32.2	32.2	92	30.1	0	0	---	0.00	30.234 
09:05	32.5	32.5	32.5	92	30.4	0	0	---	0.00	30.234 
09:10	32.9	32.9	32.9	93	31.1	0	0	---	0.00	30.234 
09:15	33.4	33.4	33.4	92	31.3	0	0	---	0.00	30.235 
09:20	33.8	33.8	33.8	92	31.7	0	0	---	0.00	30.235 
09:25	34.4	34.4	34.4	92	32.3	0	0	---	0.00	30.235 
09:30	35.0	35.0	35.0	92	32.9	0	0	---	0.00	30.234 
09:35	35.6	35.6	35.6	91	33.2	0	0	---	0.00	30.234 
09:40	36.2	36.2	36.2	91	33.8	0	0	---	0.00	30.234 
09:45	36.9	36.9	36.9	90	34.2	0	0	---	0.00	30.234 
09:50	37.8	37.8	37.8	88	34.6	0	0	---	0.00	30.234 
09:55	38.8	38.8	38.8	85	34.7	0	0	---	0.00	30.234 
10:00	39.6	39.6	39.6	81	34.3	0	1	315	0.00	30.234 
10:05	40.5	40.5	40.5	78	34.2	0	1	315	0.00	30.234 
10:10	41.3	41.3	41.3	73	33.3	0	1	315	0.00	30.234 
10:15	42.5	42.5	42.5	68	32.7	0	2	225	0.00	30.233 
10:20	43.5	43.5	43.5	62	31.4	0	2	225	0.00	30.233 
10:25	44.2	44.2	44.2	59	30.8	0	1	225	0.00	30.233 
10:30	45.1	45.1	45.1	57	30.8	0	3	225	0.00	30.229 
10:35	45.7	45.7	45.7	56	30.9	0	1	225	0.00	30.229 
10:40	46.5	46.5	46.5	55	31.2	0	2	225	0.00	30.229 
10:45	47.4	47.4	47.4	52	30.7	0	3	225	0.00	30.227 
10:50	48.3	48.3	48.3	52	31.5	0	1	225	0.00	30.227 
10:55	48.9	48.9	48.9	49	30.6	0	2	225	0.00	30.227 
11:00	49.4	49.4	49.4	49	31.0	0	3	225	0.00	30.227 
11:05	49.8	49.8	49.8	47	30.4	0	4	225	0.00	30.227 
11:10	49.8	49.8	49.8	44	28.8	1	4	90	0.00	30.227 
11:15	49.8	49.8	49.8	45	29.3	1	3	90	0.00	30.229 
11:20	49.9	49.9	49.9	42	27.7	1	3	248	0.00	30.229 
11:25	49.9	49.9	49.9	45	29.4	1	5	225	0.00	30.229 
11:30	50.1	50.1	50.1	44	29.0	1	4	112	0.00	30.227 
11:35	49.9	49.9	49.9	40	26.6	1	4	248	0.00	30.227 
11:40	49.9	49.9	49.9	41	27.1	1	3	248	0.00	30.227 
11:45	50.5	50.5	50.5	44	29.4	0	2	225	0.00	30.229 
11:50	51.1	51.1	51.1	43	29.4	1	3	112	0.00	30.229 
11:55	51.1	51.1	51.1	42	28.8	1	4	270	0.00	30.229 
12:00	51.1	51.1	51.1	43	29.4	1	4	90	0.00	30.222 
12:05	51.4	51.4	51.4	43	29.7	1	4	90	0.00	30.222 
12:10	51.4	51.4	51.4	40	27.9	1	3	22	0.00	30.222 
12:15	51.3	51.3	51.3	41	28.4	1	4	225	0.00	30.224 
12:20	51.3	51.3	51.3	43	29.6	2	9	90	0.00	30.224 
12:25	51.3	51.3	51.3	40	27.8	1	4	112	0.00	30.224 
12:30	51.1	51.1	51.1	40	27.6	1	4	270	0.00	30.220 
12:35	51.1	51.1	51.1	43	29.4	1	4	248	0.00	30.220 
12:40	51.6	51.6	51.6	40	28.1	1	4	248	0.00	30.220 
12:45	51.9	51.9	51.9	39	27.7	1	4	248	0.00	30.215 
12:50	51.6	51.6	51.6	41	28.7	1	4	292	0.00	30.215 
12:55	51.3	51.3	51.3	41	28.4	2	4	292	0.00	30.215 
13:00	51.1	51.1	51.1	39	27.0	1	4	248	0.00	30.210 
13:05	51.4	51.4	51.4	40	27.9	1	4	270	0.00	30.210 
13:10	51.7	51.7	51.7	41	28.8	1	4	248	0.00	30.210 
13:15	52.0	52.0	52.0	38	27.2	1	3	248	0.00	30.204 
13:20	52.2	52.2	52.2	39	28.0	1	4	225	0.00	30.204 
13:25	52.2	52.2	52.2	39	28.0	1	3	292	0.00	30.204 
13:30	52.0	52.0	52.0	39	27.8	1	4	270	0.00	30.192 
13:35	51.7	51.7	51.7	39	27.6	2	4	292	0.00	30.192 
13:40	52.0	52.0	52.0	42	29.6	1	3	45	0.00	30.192 
13:45	52.6	52.6	52.6	44	31.3	0	3	45	0.00	30.186 
13:50	53.1	53.1	53.1	41	30.0	1	6	45	0.00	30.186 
13:55	53.1	53.1	53.1	38	28.2	2	5	248	0.00	30.186 
14:00	53.1	53.1	53.1	40	29.4	1	4	248	0.00	30.174 
14:05	53.1	53.1	53.1	41	30.0	1	4	248	0.00	30.174 
14:10	53.1	53.1	53.1	37	27.5	1	2	248	0.00	30.174 
14:15	53.5	53.5	53.5	41	30.4	0	2	248	0.00	30.172 
14:20	53.5	53.5	53.5	38	28.5	1	4	45	0.00	30.172 
14:25	53.3	53.3	53.3	39	29.0	1	2	270	0.00	30.172 
14:30	53.3	53.3	53.3	39	29.0	1	3	270	0.00	30.160 
14:35	53.5	53.5	53.5	39	29.2	1	4	270	0.00	30.160 
14:40	53.9	53.9	53.9	37	28.2	1	3	248	0.00	30.160 
14:45	53.9	53.9	53.9	38	28.9	0	3	248	0.00	30.156 
14:50	53.9	53.9	53.9	35	26.9	1	3	248	0.00	30.156 
14:55	53.8	53.8	53.8	35	26.8	1	3	248	0.00	30.156 
15:00	53.6	53.6	53.6	37	28.0	0	3	248	0.00	30.152 
15:05	53.6	53.6	53.6	36	27.3	1	4	248	0.00	30.152 
15:10	53.2	53.2	53.2	35	26.3	1	3	292	0.00	30.152 
15:15	53.2	53.2	53.2	38	28.3	0	3	270	0.00	30.153 
15:20	53.5	53.5	53.5	39	29.2	1	3	270	0.00	30.153 
15:25	53.6	53.6	53.6	38	28.6	0	2	270	0.00	30.153 
15:30	53.8	53.8	53.8	36	27.5	1	5	90	0.00	30.144 
15:35	53.8	53.8	53.8	35	26.8	0	3	112	0.00	30.144 
15:40	53.9	53.9	53.9	33	25.5	1	4	90	0.00	30.144 
15:45	54.1	54.1	54.1	36	27.7	1	3	90	0.00	30.143 
15:50	54.2	54.2	54.2	36	27.8	0	3	270	0.00	30.143 
15:55	54.5	54.5	54.5	37	28.8	0	2	270	0.00	30.143 
16:00	54.7	54.7	54.7	37	28.9	1	3	248	0.00	30.140 
16:05	54.4	54.4	54.4	34	26.6	0	2	248	0.00	30.140 
16:10	54.2	54.2	54.2	35	27.2	0	2	248	0.00	30.140 
16:15	54.1	54.1	54.1	32	24.9	1	4	248	0.00	30.140 
16:20	53.9	53.9	53.9	34	26.2	1	4	270	0.00	30.140 
16:25	53.9	53.9	53.9	35	26.9	0	3	68	0.00	30.140 
16:30	54.1	54.1	54.1	35	27.1	1	3	22	0.00	30.133 
16:35	53.9	53.9	53.9	35	26.9	1	4	248	0.00	30.133 
16:40	53.8	53.8	53.8	34	26.1	0	2	135	0.00	30.133 
16:45	53.8	53.8	53.8	36	27.5	1	2	90	0.00	30.131 
16:50	53.8	53.8	53.8	34	26.1	0	3	90	0.00	30.131 
16:55	53.9	53.9	53.9	34	26.2	1	4	90	0.00	30.131 
17:00	53.9	53.9	53.9	32	24.7	0	4	248	0.00	30.130 
17:05	54.1	54.1	54.1	31	24.1	1	3	270	0.00	30.130 
17:10	54.1	54.1	54.1	32	24.9	0	2	292	0.00	30.130 
17:15	53.9	53.9	53.9	31	24.0	0	2	292	0.00	30.130 
17:20	53.6	53.6	53.6	35	26.6	0	1	292	0.00	30.130 
17:25	53.6	53.6	53.6	32	24.5	1	5	248	0.00	30.130 
17:30	53.6	53.6	53.6	33	25.2	1	2	248	0.00	30.130 
17:35	53.5	53.5	53.5	32	24.4	1	3	135	0.00	30.130 
17:40	53.3	53.3	53.3	35	26.4	0	4	90	0.00	30.130 
17:45	53.3	53.3	53.3	32	24.2	0	2	90	0.00	30.126 
17:50	53.3	53.3	53.3	35	26.4	0	2	90	0.00	30.126 
17:55	53.2	53.2	53.2	35	26.3	0	1	90	0.00	30.126 
18:00	53.2	53.2	53.2	34	25.6	1	3	270	0.00	30.126 
18:05	53.2	53.2	53.2	32	24.1	0	3	270	0.00	30.126 
18:10	53.2	53.2	53.2	35	26.3	0	1	270	0.00	30.126 
18:15	53.1	53.1	53.1	34	25.5	0	1	270	0.00	30.127 
18:20	52.9	52.9	52.9	32	23.9	1	3	270	0.00	30.127 
18:25	52.8	52.8	52.8	33	24.5	0	2	270	0.00	30.127 
18:30	52.6	52.6	52.6	32	23.6	0	4	270	0.00	30.125 
18:35	52.5	52.5	52.5	33	24.2	0	1	248	0.00	30.125 
18:40	52.2	52.2	52.2	35	25.4	0	1	248	0.00	30.125 
18:45	51.9	51.9	51.9	35	25.1	0	1	248	0.00	30.121 
18:50	51.6	51.6	51.6	35	24.9	0	1	248	0.00	30.121 
18:55	51.3	51.3	51.3	36	25.3	0	1	248	0.00	30.121 
19:00	51.0	51.0	51.0	36	25.0	0	0	---	0.00	30.120 
19:05	50.5	50.5	50.5	38	25.9	0	0	---	0.00	30.120 
19:10	49.9	49.9	49.9	39	25.9	0	0	---	0.00	30.120 
19:15	49.5	49.5	49.5	40	26.2	0	0	---	0.00	30.120 
19:20	49.1	49.1	49.1	42	27.0	0	0	---	0.00	30.120 
19:25	48.5	48.5	48.5	44	27.6	0	0	---	0.00	30.120 
19:30	48.0	48.0	48.0	44	27.1	0	0	---	0.00	30.123 
19:35	47.6	47.6	47.6	46	27.9	0	0	---	0.00	30.123 
19:40	47.1	47.1	47.1	49	28.9	0	0	---	0.00	30.123 
19:45	46.5	46.5	46.5	48	27.9	0	0	---	0.00	30.123 
19:50	46.0	46.0	46.0	51	28.9	0	0	---	0.00	30.123 
19:55	45.5	45.5	45.5	52	28.9	0	0	---	0.00	30.123 
20:00	44.9	44.9	44.9	54	29.3	0	0	---	0.00	30.124 
20:05	44.5	44.5	44.5	54	28.9	0	0	---	0.00	30.124 
20:10	44.1	44.1	44.1	55	29.0	0	0	---	0.00	30.124 
20:15	43.8	43.8	43.8	56	29.1	0	0	---	0.00	30.121 
20:20	43.3	43.3	43.3	57	29.1	0	0	---	0.00	30.121 
20:25	43.1	43.1	43.1	58	29.3	0	0	---	0.00	30.121 
20:30	42.6	42.6	42.6	59	29.3	0	0	---	0.00	30.126 
20:35	42.3	42.3	42.3	60	29.4	0	0	---	0.00	30.126 
20:40	41.9	41.9	41.9	61	29.4	0	0	---	0.00	30.126 
20:45	41.6	41.6	41.6	62	29.6	0	0	---	0.00	30.134 
20:50	41.5	41.5	41.5	63	29.9	0	0	---	0.00	30.134 
20:55	41.2	41.2	41.2	63	29.6	0	0	---	0.00	30.134 
21:00	40.9	40.9	40.9	64	29.7	0	0	---	0.00	30.140 
21:05	40.6	40.6	40.6	65	29.8	0	0	---	0.00	30.140 
21:10	40.5	40.5	40.5	67	30.4	0	0	---	0.00	30.140 
21:15	40.2	40.2	40.2	67	30.1	0	0	---	0.00	30.134 
21:20	39.9	39.9	39.9	68	30.2	0	0	---	0.00	30.134 
21:25	39.6	39.6	39.6	69	30.3	0	0	---	0.00	30.134 
21:30	39.5	39.5	39.5	69	30.2	0	0	---	0.00	30.135 
21:35	39.2	39.2	39.2	70	30.3	0	0	---	0.00	30.135 
21:40	39.1	39.1	39.1	70	30.2	0	0	---	0.00	30.135 
21:45	38.9	38.9	38.9	70	30.0	0	0	---	0.00	30.139 
21:50	38.8	38.8	38.8	71	30.2	0	0	---	0.00	30.139 
21:55	38.6	38.6	38.6	71	30.0	0	0	---	0.00	30.139 
22:00	38.5	38.5	38.5	71	29.9	0	0	---	0.00	30.148 
22:05	38.3	38.3	38.3	72	30.1	0	0	---	0.00	30.148 
22:10	38.2	38.2	38.2	72	30.0	0	0	---	0.00	30.148 
22:15	38.0	38.0	38.0	73	30.1	0	0	---	0.00	30.144 
22:20	37.9	37.9	37.9	73	30.0	0	0	---	0.00	30.144 
22:25	37.9	37.9	37.9	73	30.0	0	0	---	0.00	30.144 
22:30	37.8	37.8	37.8	73	29.9	0	0	---	0.00	30.142 
22:35	37.8	37.8	37.8	72	29.6	0	0	---	0.00	30.142 
22:40	37.8	37.8	37.8	72	29.6	0	0	---	0.00	30.142 
22:45	37.9	37.9	37.9	73	30.0	0	0	---	0.00	30.133 
22:50	37.9	37.9	37.9	72	29.7	0	0	---	0.00	30.133 
22:55	37.9	37.9	37.9	72	29.7	0	0	---	0.00	30.133 
23:00	38.0	38.0	38.0	72	29.8	0	0	---	0.00	30.140 
23:05	38.2	38.2	38.2	72	30.0	0	0	---	0.00	30.140 
23:10	38.2	38.2	38.2	72	30.0	0	0	---	0.00	30.140 
23:15	38.2	38.2	38.2	72	30.0	0	0	---	0.00	30.142 
23:20	38.2	38.2	38.2	70	29.3	0	0	---	0.00	30.142 
23:25	38.2	38.2	38.2	70	29.3	0	0	---	0.00	30.142 
23:30	38.2	38.2	38.2	70	29.3	0	0	---	0.00	30.143 
23:35	38.3	38.3	38.3	69	29.0	0	0	---	0.00	30.143 
23:40	38.3	38.3	38.3	70	29.4	0	0	---	0.00	30.143 
23:45	38.2	38.2	38.2	70	29.3	0	0	---	0.00	30.138 
23:50	38.0	38.0	38.0	71	29.4	0	0	---	0.00	30.138 
23:55	37.8	37.8	37.8	71	29.3	0	0	---	0.00	30.138 

CoCoRaHS
IN-AL-39
A2 Web Hosting
Creative Commons License
GoDaddy
search engine by freefind advanced

loaded 2018-11-15 06:08:15 • last modified 2010-11-18 10:43:29
Privacy PolicyDisclaimer
• wx.awcolley.com is powered by PmWiki v.2002016 •
• all content (unless otherwise noted) © 2018 A W Colley